Time;durP1;ratioP1;P1;durP2;ratioP2;P2;SDS_P1;SDS_P2;PMS_P1;PMS_P2;Temp;Humidity;BMP_temperature;BMP_pressure;BME280_temperature;BME280_humidity;BME280_pressure;Samples;Min_cycle;Max_cycle;Signal;HPM_P1;HPM_P2
2022/10/25 00:02:17;;;;;;;3.35;0.90;;;11.80;86.10;;;;;;5068464;28;20017;-77
2022/10/25 00:04:43;;;;;;;3.22;1.00;;;11.80;86.20;;;;;;5068488;28;20415;-77
2022/10/25 00:07:08;;;;;;;6.80;1.23;;;11.80;86.20;;;;;;5068432;28;20025;-77
2022/10/25 00:09:34;;;;;;;2.17;1.10;;;11.80;86.20;;;;;;5068239;28;20542;-77
2022/10/25 00:11:59;;;;;;;3.50;1.10;;;11.70;86.30;;;;;;5068087;28;20025;-77
2022/10/25 00:14:25;;;;;;;2.13;1.20;;;11.70;86.40;;;;;;5034854;28;20470;-77
2022/10/25 00:16:51;;;;;;;4.95;1.50;;;11.70;86.40;;;;;;5034966;28;20021;-77
2022/10/25 00:19:16;;;;;;;6.80;1.10;;;11.70;86.60;;;;;;5034951;28;20025;-77
2022/10/25 00:21:42;;;;;;;3.95;1.02;;;11.70;86.60;;;;;;5034920;28;20377;-77
2022/10/25 00:24:10;;;;;;;1.95;1.40;;;11.70;86.60;;;;;;5034896;28;20036;-77
2022/10/25 00:26:35;;;;;;;1.75;1.10;;;11.70;86.70;;;;;;5034740;28;20021;-77
2022/10/25 00:29:01;;;;;;;2.42;1.10;;;11.80;86.70;;;;;;5034814;28;20075;-77
2022/10/25 00:31:26;;;;;;;3.60;1.27;;;11.80;86.30;;;;;;5034937;28;20021;-77
2022/10/25 00:33:52;;;;;;;6.30;1.40;;;11.70;86.10;;;;;;5034839;28;20036;-77
2022/10/25 00:36:23;;;;;;;2.88;1.10;;;11.80;86.00;;;;;;5034795;28;20017;-77
2022/10/25 00:38:49;;;;;;;1.55;1.20;;;11.70;86.10;;;;;;5034734;28;20037;-77
2022/10/25 00:41:22;;;;;;;7.53;1.20;;;11.60;86.20;;;;;;5034603;28;20115;-77
2022/10/25 00:43:51;;;;;;;4.20;1.30;;;11.60;86.60;;;;;;5034635;28;20028;-77
2022/10/25 00:46:20;;;;;;;3.10;1.30;;;11.60;86.70;;;;;;5034558;28;20052;-75
2022/10/25 00:48:55;;;;;;;2.65;1.40;;;11.60;86.90;;;;;;5051357;28;20366;-75
2022/10/25 00:51:40;;;;;;;3.17;1.02;;;11.60;87.00;;;;;;5051221;28;20200;-75
2022/10/25 00:54:09;;;;;;;4.93;1.08;;;11.60;86.90;;;;;;5038255;28;20025;-74
2022/10/25 00:56:39;;;;;;;2.80;1.35;;;11.60;86.80;;;;;;5037868;28;20496;-74
2022/10/25 00:59:09;;;;;;;5.80;1.13;;;11.60;86.70;;;;;;5038303;28;20485;-74
2022/10/25 01:01:36;;;;;;;4.40;1.17;;;11.70;86.50;;;;;;5038302;28;20120;-77
2022/10/25 01:04:06;;;;;;;3.22;1.08;;;11.60;86.50;;;;;;5037840;28;20029;-74
2022/10/25 01:06:41;;;;;;;3.08;1.42;;;11.60;86.50;;;;;;5038046;28;20032;-75
2022/10/25 01:09:11;;;;;;;4.60;1.38;;;11.60;86.40;;;;;;5038239;28;20519;-75
2022/10/25 01:11:37;;;;;;;2.72;1.08;;;11.60;86.50;;;;;;5038046;28;20029;-75
2022/10/25 01:14:05;;;;;;;2.50;1.08;;;11.60;86.40;;;;;;5053113;28;20055;-75
2022/10/25 01:16:41;;;;;;;2.90;1.10;;;11.60;86.60;;;;;;5071108;28;20059;-74
2022/10/25 01:19:19;;;;;;;3.78;1.48;;;11.50;86.80;;;;;;5054483;28;20128;-75
2022/10/25 01:21:52;;;;;;;4.35;1.20;;;11.50;86.70;;;;;;5071271;28;20111;-75
2022/10/25 01:24:27;;;;;;;5.50;1.00;;;11.50;87.00;;;;;;5071009;28;20481;-75
2022/10/25 01:27:15;;;;;;;2.42;0.80;;;11.50;87.00;;;;;;5071015;28;20090;-75
2022/10/25 01:30:02;;;;;;;4.00;1.33;;;11.50;86.90;;;;;;5070771;28;20032;-76
2022/10/25 01:32:42;;;;;;;5.05;1.10;;;11.60;86.90;;;;;;5071112;28;20024;-76
2022/10/25 01:35:17;;;;;;;4.72;1.05;;;11.60;86.70;;;;;;5071180;28;20031;-76
2022/10/25 01:37:49;;;;;;;2.38;1.25;;;11.60;86.50;;;;;;5053895;28;20461;-76
2022/10/25 01:40:42;;;;;;;2.00;1.13;;;11.60;87.20;;;;;;5070954;28;20056;-76
2022/10/25 01:43:29;;;;;;;4.43;1.27;;;11.60;86.40;;;;;;5070830;28;20017;-76
2022/10/25 01:46:13;;;;;;;7.25;1.23;;;11.60;86.40;;;;;;5070631;28;20086;-76
2022/10/25 01:48:44;;;;;;;2.70;0.93;;;11.60;86.40;;;;;;5070757;28;20017;-75
2022/10/25 01:51:13;;;;;;;3.00;1.20;;;11.60;86.30;;;;;;5070699;28;20021;-76
2022/10/25 01:53:47;;;;;;;2.88;1.25;;;11.60;86.30;;;;;;5070663;28;20049;-76
2022/10/25 01:56:29;;;;;;;3.70;1.27;;;11.60;87.20;;;;;;5070435;28;20503;-77
2022/10/25 01:59:07;;;;;;;7.13;1.33;;;11.60;86.30;;;;;;5070532;28;20041;-75
2022/10/25 02:01:57;;;;;;;5.10;1.10;;;11.60;86.40;;;;;;5070556;28;20029;-76
2022/10/25 02:04:46;;;;;;;3.60;1.10;;;11.60;86.20;;;;;;5069949;28;20112;-76
2022/10/25 02:07:33;;;;;;;3.90;1.15;;;11.60;86.50;;;;;;5070479;28;20028;-76
2022/10/25 02:10:15;;;;;;;2.72;1.30;;;11.50;86.80;;;;;;5070288;28;20120;-76
2022/10/25 02:12:47;;;;;;;4.05;1.33;;;11.50;86.40;;;;;;5070049;28;20135;-76
2022/10/25 02:15:28;;;;;;;5.53;1.05;;;11.50;86.60;;;;;;5069941;28;20025;-77
2022/10/25 02:17:58;;;;;;;4.00;1.00;;;11.50;86.70;;;;;;5070241;28;20037;-77
2022/10/25 02:20:26;;;;;;;3.95;1.42;;;11.50;86.70;;;;;;5069816;28;20071;-75
2022/10/25 02:22:53;;;;;;;7.28;1.42;;;11.60;86.70;;;;;;5070055;28;20087;-75
2022/10/25 02:25:20;;;;;;;4.35;1.42;;;11.50;86.70;;;;;;5069877;28;20028;-75
2022/10/25 02:27:48;;;;;;;3.92;1.27;;;11.50;86.90;;;;;;5069627;28;20017;-76
2022/10/25 02:30:14;;;;;;;3.85;1.40;;;11.50;86.80;;;;;;5069926;28;20094;-76
2022/10/25 02:32:39;;;;;;;3.35;1.30;;;11.50;86.80;;;;;;5069840;28;20465;-76
2022/10/25 02:35:13;;;;;;;5.10;1.50;;;11.40;86.80;;;;;;5069764;28;20025;-76
2022/10/25 02:37:38;;;;;;;3.88;1.27;;;11.40;86.90;;;;;;5069685;28;20111;-76
2022/10/25 02:40:05;;;;;;;7.97;2.17;;;11.40;86.80;;;;;;5069407;28;20059;-76
2022/10/25 02:42:30;;;;;;;7.30;1.67;;;11.40;86.80;;;;;;5069375;28;20028;-76
2022/10/25 02:44:56;;;;;;;2.67;1.00;;;11.40;87.00;;;;;;5069095;28;20094;-76
2022/10/25 02:47:21;;;;;;;8.63;1.27;;;11.30;87.00;;;;;;5069167;28;20024;-76
2022/10/25 02:49:47;;;;;;;4.00;1.20;;;11.40;86.90;;;;;;5069468;28;20048;-76
2022/10/25 02:52:13;;;;;;;4.03;1.33;;;11.40;87.00;;;;;;5069414;28;20534;-76
2022/10/25 02:54:38;;;;;;;6.68;1.30;;;11.40;87.00;;;;;;5069239;28;20021;-77
2022/10/25 02:57:04;;;;;;;5.22;1.52;;;11.30;86.90;;;;;;5068979;28;20072;-77
2022/10/25 02:59:29;;;;;;;3.50;1.42;;;11.30;86.70;;;;;;5052761;28;20025;-76
2022/10/25 03:01:55;;;;;;;5.45;1.60;;;11.30;86.60;;;;;;5052640;28;20493;-76
2022/10/25 03:04:21;;;;;;;5.13;1.70;;;11.30;86.60;;;;;;5069284;28;20028;-76
2022/10/25 03:06:46;;;;;;;7.85;1.45;;;11.20;86.60;;;;;;5069086;28;20036;-77
2022/10/25 03:09:12;;;;;;;4.05;1.27;;;11.20;86.80;;;;;;5069046;28;20432;-77
2022/10/25 03:11:38;;;;;;;3.72;1.42;;;11.30;87.50;;;;;;5069073;28;20017;-76
2022/10/25 03:14:03;;;;;;;3.40;1.60;;;11.20;87.20;;;;;;5050061;28;20052;-76
2022/10/25 03:16:29;;;;;;;3.88;1.65;;;11.20;86.30;;;;;;5015455;28;20470;-76
2022/10/25 03:18:58;;;;;;;7.30;1.65;;;11.20;86.30;;;;;;5015900;28;20060;-76
2022/10/25 03:21:24;;;;;;;5.15;1.70;;;11.20;86.40;;;;;;5015329;28;20017;-77
2022/10/25 03:23:50;;;;;;;4.20;1.88;;;11.20;86.30;;;;;;5015501;28;20053;-76
2022/10/25 03:26:15;;;;;;;3.03;1.15;;;11.20;86.40;;;;;;5015562;28;20061;-77
2022/10/25 03:28:41;;;;;;;5.43;2.60;;;11.20;86.60;;;;;;5015411;28;20034;-76
2022/10/25 03:31:13;;;;;;;8.75;4.60;;;11.20;86.70;;;;;;5015765;28;20072;-76
2022/10/25 03:33:38;;;;;;;11.20;4.22;;;11.20;86.50;;;;;;5015588;28;20087;-77
2022/10/25 03:36:04;;;;;;;7.93;5.03;;;11.10;86.60;;;;;;5015546;28;20029;-77
2022/10/25 03:38:30;;;;;;;18.00;7.72;;;11.20;86.70;;;;;;5015346;28;20071;-75
2022/10/25 03:40:56;;;;;;;20.77;8.63;;;11.20;86.70;;;;;;5015192;28;20021;-77
2022/10/25 03:43:21;;;;;;;13.57;8.10;;;11.20;86.60;;;;;;5015345;28;20375;-77
2022/10/25 03:45:47;;;;;;;13.65;6.50;;;11.20;86.50;;;;;;5015390;28;20517;-76
2022/10/25 03:48:14;;;;;;;10.45;5.10;;;11.10;86.50;;;;;;5015383;28;20013;-76
2022/10/25 03:50:39;;;;;;;9.50;4.18;;;11.10;86.20;;;;;;5015193;28;20031;-77
2022/10/25 03:53:05;;;;;;;4.57;2.78;;;11.10;86.30;;;;;;5015499;28;20025;-77
2022/10/25 03:55:32;;;;;;;9.32;2.65;;;11.00;86.10;;;;;;5015321;28;20048;-77
2022/10/25 03:57:58;;;;;;;4.22;2.72;;;11.00;86.20;;;;;;5032852;28;20042;-77
2022/10/25 04:00:24;;;;;;;6.18;2.67;;;11.00;86.20;;;;;;5015417;28;20025;-77
2022/10/25 04:02:58;;;;;;;4.70;3.10;;;11.00;85.90;;;;;;5015314;28;20465;-77
2022/10/25 04:05:23;;;;;;;3.30;2.53;;;10.90;86.00;;;;;;5031699;28;20061;-77
2022/10/25 04:07:49;;;;;;;4.30;2.20;;;10.90;85.90;;;;;;5015495;28;20057;-77
2022/10/25 04:10:16;;;;;;;9.10;2.53;;;10.90;86.10;;;;;;5015355;28;20440;-77
2022/10/25 04:12:42;;;;;;;3.65;2.40;;;10.80;86.20;;;;;;5026591;28;20114;-76
2022/10/25 04:15:08;;;;;;;5.72;1.80;;;10.80;86.50;;;;;;5067938;28;20423;-76
2022/10/25 04:17:34;;;;;;;8.98;2.38;;;10.80;86.50;;;;;;5068166;28;20056;-76
2022/10/25 04:19:59;;;;;;;4.35;2.30;;;10.80;86.50;;;;;;5068085;28;20453;-76
2022/10/25 04:22:25;;;;;;;9.45;2.75;;;10.80;86.60;;;;;;5067978;28;20087;-77
2022/10/25 04:24:50;;;;;;;7.78;2.53;;;10.70;86.50;;;;;;5068236;28;20466;-76
2022/10/25 04:27:16;;;;;;;7.68;2.92;;;10.80;87.20;;;;;;5070853;28;20507;-78
2022/10/25 04:29:41;;;;;;;2.53;1.77;;;10.80;86.30;;;;;;5071779;28;20032;-79
2022/10/25 04:32:07;;;;;;;5.15;2.20;;;10.70;86.60;;;;;;5072015;28;20439;-77
2022/10/25 04:34:33;;;;;;;7.70;2.75;;;10.70;86.70;;;;;;5071868;28;20082;-78
2022/10/25 04:36:58;;;;;;;9.63;2.88;;;10.70;87.50;;;;;;5071727;28;20033;-78
2022/10/25 04:39:25;;;;;;;7.50;3.08;;;10.70;86.50;;;;;;5071900;28;20477;-78
2022/10/25 04:41:51;;;;;;;7.78;3.08;;;10.60;86.40;;;;;;5071514;28;20029;-77
2022/10/25 04:44:16;;;;;;;7.45;2.63;;;10.60;86.30;;;;;;5071483;28;20036;-78
2022/10/25 04:46:42;;;;;;;5.68;2.85;;;10.60;86.10;;;;;;5071681;28;20469;-78
2022/10/25 04:49:11;;;;;;;6.95;3.25;;;10.50;87.40;;;;;;5071608;28;20025;-77
2022/10/25 04:51:37;;;;;;;10.52;4.32;;;10.60;86.50;;;;;;5071390;28;20017;-78
2022/10/25 04:54:02;;;;;;;9.52;4.75;;;10.60;86.10;;;;;;5055867;28;20370;-77
2022/10/25 04:56:28;;;;;;;13.10;4.82;;;10.60;86.20;;;;;;5071597;28;20071;-76
2022/10/25 04:58:54;;;;;;;10.07;4.88;;;10.50;86.20;;;;;;5071343;28;20102;-76
2022/10/25 05:01:20;;;;;;;13.25;4.97;;;10.40;86.40;;;;;;5071276;28;20021;-77
2022/10/25 05:03:45;;;;;;;7.88;3.70;;;10.40;86.40;;;;;;5070741;28;20027;-76
2022/10/25 05:06:15;;;;;;;9.07;3.90;;;10.40;86.70;;;;;;5071029;28;20387;-77
2022/10/25 05:08:46;;;;;;;11.98;3.83;;;10.40;86.50;;;;;;5071243;28;20048;-76
2022/10/25 05:11:14;;;;;;;9.20;3.25;;;10.40;86.60;;;;;;5071210;28;20025;-76
2022/10/25 05:13:41;;;;;;;11.73;3.30;;;10.40;86.70;;;;;;5070818;28;20052;-76
2022/10/25 05:16:10;;;;;;;6.40;2.30;;;10.40;87.10;;;;;;5070871;28;20029;-78
2022/10/25 05:18:35;;;;;;;5.20;2.58;;;10.40;86.90;;;;;;5070611;28;20131;-77
2022/10/25 05:21:04;;;;;;;6.40;2.63;;;10.40;86.90;;;;;;5071051;28;20057;-78
2022/10/25 05:23:35;;;;;;;6.35;2.53;;;10.40;86.60;;;;;;5070560;28;20167;-77
2022/10/25 05:26:06;;;;;;;6.07;3.45;;;10.40;86.50;;;;;;5036557;28;20033;-78
2022/10/25 05:28:34;;;;;;;5.45;3.35;;;10.40;86.20;;;;;;5070501;28;20063;-77
2022/10/25 05:31:14;;;;;;;8.27;3.80;;;10.50;86.50;;;;;;5070048;28;20021;-79
2022/10/25 05:33:40;;;;;;;6.43;3.53;;;10.50;86.40;;;;;;5070799;28;20389;-77
2022/10/25 05:36:06;;;;;;;7.72;3.13;;;10.50;86.30;;;;;;5053921;28;20032;-76
2022/10/25 05:38:32;;;;;;;7.82;3.13;;;10.50;86.10;;;;;;5054337;28;20036;-78
2022/10/25 05:40:59;;;;;;;10.13;3.28;;;10.50;85.70;;;;;;5070503;28;20689;-77
2022/10/25 05:43:25;;;;;;;5.95;3.08;;;10.50;85.80;;;;;;5070390;28;20029;-77
2022/10/25 05:46:00;;;;;;;5.88;2.75;;;10.50;85.90;;;;;;5055271;28;20029;-77
2022/10/25 05:48:25;;;;;;;8.18;3.58;;;10.40;86.00;;;;;;5070587;28;20432;-76
2022/10/25 05:50:52;;;;;;;4.25;2.88;;;10.40;86.10;;;;;;5070283;28;20020;-78
2022/10/25 05:53:18;;;;;;;5.93;2.80;;;10.40;86.90;;;;;;5055480;28;20473;-77
2022/10/25 05:55:44;;;;;;;5.63;3.17;;;10.40;86.10;;;;;;5070450;28;20124;-77
2022/10/25 05:58:09;;;;;;;11.98;6.25;;;10.40;86.00;;;;;;5070614;28;20068;-77
2022/10/25 06:00:35;;;;;;;7.40;3.03;;;10.40;86.10;;;;;;5054302;28;20033;-77
2022/10/25 06:03:02;;;;;;;4.20;2.40;;;10.40;86.00;;;;;;5055887;28;20033;-77
2022/10/25 06:05:27;;;;;;;5.70;2.47;;;10.40;86.00;;;;;;5053552;28;20023;-78
2022/10/25 06:07:53;;;;;;;5.38;2.85;;;10.50;86.10;;;;;;5070371;28;20033;-77
2022/10/25 06:10:19;;;;;;;4.07;2.60;;;10.50;85.80;;;;;;5070085;28;20021;-78
2022/10/25 06:12:44;;;;;;;4.72;2.55;;;10.40;85.50;;;;;;5053012;28;20049;-78
2022/10/25 06:15:10;;;;;;;6.85;3.15;;;10.50;85.80;;;;;;5054981;28;20021;-76
2022/10/25 06:17:36;;;;;;;9.57;3.55;;;10.50;85.70;;;;;;5070326;28;20036;-77
2022/10/25 06:20:02;;;;;;;7.80;3.22;;;10.40;85.40;;;;;;5053356;28;20477;-77
2022/10/25 06:25:03;;;;;;;5.28;3.20;;;10.40;85.30;;;;;;5617925;22;20067;-77
2022/10/25 06:27:29;;;;;;;7.80;3.38;;;10.40;85.30;;;;;;5016292;28;20032;-78
2022/10/25 06:29:54;;;;;;;6.28;3.63;;;10.40;85.40;;;;;;4933828;29;20086;-76
2022/10/25 06:32:20;;;;;;;6.50;3.15;;;10.40;85.50;;;;;;4934290;29;20032;-77
2022/10/25 06:34:45;;;;;;;8.77;3.22;;;10.50;85.70;;;;;;4934141;29;20464;-79
2022/10/25 06:37:11;;;;;;;7.40;3.25;;;10.50;85.40;;;;;;4933992;29;20078;-77
2022/10/25 06:39:37;;;;;;;4.93;3.13;;;10.50;85.00;;;;;;4933782;29;20028;-77
2022/10/25 06:42:02;;;;;;;8.70;3.05;;;10.50;84.90;;;;;;4933964;29;20534;-77
2022/10/25 06:44:28;;;;;;;6.15;2.78;;;10.60;84.70;;;;;;4933904;29;20043;-76
2022/10/25 06:46:53;;;;;;;5.43;3.15;;;10.60;84.50;;;;;;4934089;29;20020;-77
2022/10/25 06:49:19;;;;;;;8.23;3.35;;;10.60;84.20;;;;;;4933087;29;20028;-77
2022/10/25 06:51:44;;;;;;;8.02;3.30;;;10.70;84.10;;;;;;4933458;29;20503;-77
2022/10/25 06:54:10;;;;;;;5.38;2.80;;;10.70;84.00;;;;;;4933992;29;20059;-77
2022/10/25 06:56:36;;;;;;;6.03;3.65;;;10.70;83.90;;;;;;4933726;29;20440;-77
2022/10/25 06:59:02;;;;;;;8.63;3.08;;;10.80;83.50;;;;;;4933624;29;20536;-77
2022/10/25 07:01:27;;;;;;;6.88;3.42;;;10.80;83.30;;;;;;4933677;29;20035;-76
2022/10/25 07:03:54;;;;;;;5.22;3.33;;;10.90;83.00;;;;;;4933621;29;20090;-78
2022/10/25 07:06:28;;;;;;;5.03;3.40;;;10.90;82.80;;;;;;4933787;29;20098;-78
2022/10/25 07:08:56;;;;;;;6.13;3.28;;;11.00;82.60;;;;;;4933587;29;20103;-77
2022/10/25 07:11:24;;;;;;;9.30;4.53;;;11.00;82.40;;;;;;4933497;29;20032;-76
2022/10/25 07:13:49;;;;;;;9.10;4.20;;;11.10;82.30;;;;;;4933527;29;20039;-77
2022/10/25 07:16:17;;;;;;;8.90;4.13;;;11.10;82.20;;;;;;4933511;29;20028;-77
2022/10/25 07:18:43;;;;;;;4.82;3.28;;;11.10;82.00;;;;;;4933163;29;20044;-76
2022/10/25 07:21:14;;;;;;;5.22;3.65;;;11.20;82.10;;;;;;4933186;29;20039;-77
2022/10/25 07:23:41;;;;;;;8.35;4.03;;;11.20;82.00;;;;;;5015263;28;20028;-78
2022/10/25 07:26:13;;;;;;;7.95;3.55;;;11.30;82.00;;;;;;4933334;29;20050;-76
2022/10/25 07:28:39;;;;;;;7.85;3.33;;;11.30;81.90;;;;;;4933153;29;20070;-76
2022/10/25 07:31:05;;;;;;;8.52;4.03;;;11.40;82.10;;;;;;4933006;29;20491;-77
2022/10/25 07:33:32;;;;;;;7.35;3.92;;;11.50;81.70;;;;;;4933020;29;20118;-75
2022/10/25 07:35:57;;;;;;;7.30;3.78;;;11.60;81.60;;;;;;4933075;29;20097;-77
2022/10/25 07:38:23;;;;;;;5.72;3.40;;;11.70;81.60;;;;;;4932920;29;20099;-77
2022/10/25 07:40:55;;;;;;;9.20;3.50;;;11.80;81.30;;;;;;4933172;29;20028;-77
2022/10/25 07:43:20;;;;;;;7.45;3.10;;;12.00;80.90;;;;;;4933255;29;20024;-75
2022/10/25 07:45:48;;;;;;;6.43;2.83;;;12.00;80.60;;;;;;4933131;29;20027;-77
2022/10/25 07:48:14;;;;;;;5.57;2.40;;;12.10;80.40;;;;;;4933189;29;20388;-78
2022/10/25 07:50:39;;;;;;;6.20;2.70;;;12.20;80.00;;;;;;4932923;29;20024;-78
2022/10/25 07:53:05;;;;;;;5.97;2.60;;;12.40;79.90;;;;;;4932836;29;20035;-77
2022/10/25 07:55:31;;;;;;;6.25;2.60;;;12.40;79.70;;;;;;4933001;29;20024;-75
2022/10/25 07:58:01;;;;;;;3.80;1.83;;;12.60;79.60;;;;;;4932884;29;20122;-77
2022/10/25 08:00:27;;;;;;;3.28;1.95;;;12.70;79.70;;;;;;4932520;29;20032;-77
2022/10/25 08:02:53;;;;;;;7.20;2.22;;;12.80;79.30;;;;;;4932652;29;20560;-77
2022/10/25 08:05:18;;;;;;;6.18;2.42;;;13.00;78.80;;;;;;4932794;29;20028;-76
2022/10/25 08:07:44;;;;;;;5.13;1.98;;;13.10;78.50;;;;;;4932771;29;20058;-76
2022/10/25 08:10:09;;;;;;;5.28;2.25;;;13.20;77.50;;;;;;4932824;29;20028;-77
2022/10/25 08:12:35;;;;;;;4.80;1.80;;;13.30;77.40;;;;;;4932601;29;20031;-76
2022/10/25 08:15:01;;;;;;;3.97;1.58;;;13.40;77.20;;;;;;4932747;29;20031;-76
2022/10/25 08:17:26;;;;;;;4.53;2.05;;;13.50;77.10;;;;;;5014537;28;20094;-77
2022/10/25 08:19:52;;;;;;;5.60;1.90;;;13.50;76.70;;;;;;4933099;28;20082;-77
2022/10/25 08:22:18;;;;;;;4.57;1.80;;;13.70;76.60;;;;;;4998322;28;20101;-76
2022/10/25 08:24:43;;;;;;;3.70;1.90;;;13.90;76.30;;;;;;4932650;29;20055;-75
2022/10/25 08:27:09;;;;;;;4.25;1.83;;;14.00;75.80;;;;;;4933335;29;20028;-77
2022/10/25 08:29:34;;;;;;;4.38;1.50;;;14.10;75.70;;;;;;4933262;29;20028;-78
2022/10/25 08:32:00;;;;;;;3.58;1.50;;;14.40;75.40;;;;;;4933308;29;20030;-77
2022/10/25 08:34:26;;;;;;;3.45;1.98;;;14.60;76.10;;;;;;4932447;29;20388;-77
2022/10/25 08:36:51;;;;;;;5.07;1.52;;;14.80;74.40;;;;;;5014609;28;20032;-78
2022/10/25 08:39:17;;;;;;;2.90;1.52;;;15.00;74.00;;;;;;4932523;29;20038;-76
2022/10/25 08:41:57;;;;;;;3.50;1.60;;;15.20;73.50;;;;;;4940781;29;20093;-77
2022/10/25 08:44:52;;;;;;;2.65;1.25;;;15.40;72.80;;;;;;4941804;29;20085;-77
2022/10/25 08:47:28;;;;;;;7.93;1.50;;;15.70;71.90;;;;;;4942276;29;20023;-76
2022/10/25 08:50:11;;;;;;;2.53;0.88;;;15.90;70.70;;;;;;4942703;29;20032;-76
2022/10/25 08:52:52;;;;;;;3.30;1.02;;;16.10;70.50;;;;;;4943325;29;20031;-78
2022/10/25 08:55:28;;;;;;;6.35;1.25;;;16.30;68.80;;;;;;5024230;28;20047;-78
2022/10/25 08:57:55;;;;;;;2.28;0.95;;;16.50;67.90;;;;;;5019285;28;20039;-76
2022/10/25 09:00:22;;;;;;;5.00;1.00;;;16.60;68.10;;;;;;4936800;29;20032;-78
2022/10/25 09:02:55;;;;;;;4.55;1.38;;;16.80;67.20;;;;;;4932751;29;20032;-78
2022/10/25 09:05:52;;;;;;;5.45;1.58;;;17.00;67.30;;;;;;4932431;29;20023;-79
2022/10/25 09:08:35;;;;;;;6.32;1.60;;;17.20;66.70;;;;;;4932289;29;20055;-77
2022/10/25 09:11:19;;;;;;;7.72;1.65;;;17.50;65.80;;;;;;4931875;29;20131;-78
2022/10/25 09:13:50;;;;;;;6.70;1.58;;;17.60;64.00;;;;;;4933291;29;20059;-78
2022/10/25 09:16:42;;;;;;;3.60;1.05;;;17.70;62.40;;;;;;4934948;29;20103;-77
2022/10/25 09:19:19;;;;;;;6.22;1.25;;;17.50;60.60;;;;;;5001164;28;20043;-78
2022/10/25 09:21:48;;;;;;;3.00;0.85;;;17.40;60.70;;;;;;5017825;28;20456;-77
2022/10/25 09:24:42;;;;;;;4.32;0.75;;;17.40;60.40;;;;;;4935345;29;20027;-77
2022/10/25 09:27:14;;;;;;;4.50;1.30;;;17.40;61.00;;;;;;5000177;28;20468;-77
2022/10/25 09:29:47;;;;;;;5.57;0.98;;;17.60;61.40;;;;;;4934855;29;20024;-77
2022/10/25 09:32:22;;;;;;;4.38;0.90;;;17.50;60.80;;;;;;5000694;28;20027;-77
2022/10/25 09:34:48;;;;;;;4.05;0.93;;;17.40;61.30;;;;;;4934879;29;20227;-76
2022/10/25 09:37:24;;;;;;;4.15;0.93;;;17.40;60.50;;;;;;4934737;29;20500;-76
2022/10/25 09:39:54;;;;;;;6.88;1.42;;;17.50;60.70;;;;;;4934906;29;20024;-77
2022/10/25 09:42:34;;;;;;;2.80;1.05;;;17.40;60.50;;;;;;4934886;29;20023;-77
2022/10/25 09:45:06;;;;;;;2.50;0.65;;;17.40;60.20;;;;;;4934917;29;20070;-77
2022/10/25 09:47:46;;;;;;;5.60;1.13;;;17.50;60.50;;;;;;4934933;29;20035;-78
2022/10/25 09:50:23;;;;;;;5.30;0.70;;;17.60;59.30;;;;;;4934728;29;20376;-78
2022/10/25 09:53:06;;;;;;;7.60;1.27;;;17.60;59.60;;;;;;4934562;29;20125;-78
2022/10/25 09:55:47;;;;;;;6.18;1.40;;;17.70;59.60;;;;;;5000573;28;20023;-79
2022/10/25 09:58:24;;;;;;;4.18;1.00;;;17.80;59.50;;;;;;4934266;29;20036;-78
2022/10/25 10:00:52;;;;;;;2.35;0.77;;;17.80;56.40;;;;;;4934280;29;20023;-76
2022/10/25 10:03:19;;;;;;;7.50;1.33;;;17.90;57.10;;;;;;4934395;28;20060;-78
2022/10/25 10:05:57;;;;;;;6.68;1.10;;;18.00;55.30;;;;;;4933966;29;20063;-78
2022/10/25 10:08:24;;;;;;;7.70;1.63;;;18.10;56.00;;;;;;4933903;29;20028;-76
2022/10/25 10:10:52;;;;;;;4.75;0.63;;;18.30;55.00;;;;;;5016091;28;20077;-76
2022/10/25 10:13:42;;;;;;;4.93;0.70;;;18.20;50.50;;;;;;4934091;29;20035;-76
2022/10/25 10:16:18;;;;;;;5.78;1.23;;;18.10;51.80;;;;;;4934106;29;20023;-78
2022/10/25 10:18:44;;;;;;;3.33;1.00;;;18.10;54.20;;;;;;4933955;29;20070;-77
2022/10/25 10:21:13;;;;;;;2.97;0.60;;;18.40;52.30;;;;;;4933887;29;20016;-78
2022/10/25 10:23:55;;;;;;;3.35;0.70;;;18.40;51.20;;;;;;5015797;28;20036;-79
2022/10/25 10:26:43;;;;;;;3.55;0.82;;;18.40;51.90;;;;;;4933843;29;20123;-78
2022/10/25 10:29:13;;;;;;;6.30;0.98;;;18.60;52.00;;;;;;4997821;28;20594;-79
2022/10/25 10:31:47;;;;;;;5.32;0.73;;;18.60;51.80;;;;;;4933972;29;20058;-77
2022/10/25 10:34:31;;;;;;;5.40;0.95;;;18.90;49.90;;;;;;5015856;28;20030;-78
2022/10/25 10:37:06;;;;;;;2.92;0.50;;;18.90;50.00;;;;;;4933826;29;20060;-78
2022/10/25 10:39:32;;;;;;;2.53;0.60;;;18.80;49.80;;;;;;4933658;29;20032;-77
2022/10/25 10:42:03;;;;;;;1.70;0.70;;;19.00;50.30;;;;;;4933554;29;20508;-78
2022/10/25 10:44:33;;;;;;;2.22;0.77;;;19.00;48.20;;;;;;4933558;29;20114;-78
2022/10/25 10:47:09;;;;;;;3.03;1.08;;;19.20;46.60;;;;;;5015500;28;20085;-78
2022/10/25 10:49:37;;;;;;;3.78;0.82;;;19.30;48.30;;;;;;5015388;28;20028;-78
2022/10/25 10:52:03;;;;;;;2.50;0.70;;;19.50;47.90;;;;;;4933176;29;20103;-78
2022/10/25 10:54:38;;;;;;;3.45;0.70;;;19.60;46.80;;;;;;4933526;29;20369;-78
2022/10/25 10:57:05;;;;;;;2.55;0.70;;;19.70;45.60;;;;;;4933295;29;20379;-78
2022/10/25 10:59:50;;;;;;;5.53;0.90;;;19.60;46.80;;;;;;4933219;29;20093;-78
2022/10/25 11:02:26;;;;;;;1.80;0.90;;;19.50;48.10;;;;;;4933135;29;20068;-79
2022/10/25 11:04:54;;;;;;;5.28;0.90;;;19.60;48.20;;;;;;4932816;29;20591;-78
2022/10/25 11:07:34;;;;;;;3.17;0.95;;;20.00;45.90;;;;;;4932883;29;20039;-77
2022/10/25 11:10:15;;;;;;;6.50;1.45;;;20.40;45.30;;;;;;4932864;29;20490;-77
2022/10/25 11:12:43;;;;;;;2.47;0.80;;;20.90;43.80;;;;;;4932743;29;20511;-77
2022/10/25 11:15:15;;;;;;;3.47;0.77;;;21.30;42.90;;;;;;4932986;29;20102;-77
2022/10/25 11:17:59;;;;;;;2.63;0.68;;;21.10;40.50;;;;;;4932883;29;20046;-77
2022/10/25 11:20:49;;;;;;;3.75;0.80;;;20.90;42.40;;;;;;4932948;29;20092;-75
2022/10/25 11:23:17;;;;;;;4.13;0.73;;;20.70;42.80;;;;;;4932634;29;20035;-77
2022/10/25 11:25:50;;;;;;;4.28;0.85;;;20.70;43.30;;;;;;4932108;29;20079;-77
2022/10/25 11:28:39;;;;;;;3.05;0.80;;;20.80;43.80;;;;;;4932529;29;20051;-77
2022/10/25 11:31:27;;;;;;;8.88;1.10;;;20.70;44.60;;;;;;4922105;28;20043;-78
2022/10/25 11:34:16;;;;;;;2.28;0.60;;;20.80;43.10;;;;;;4932928;29;20051;-77
2022/10/25 11:36:44;;;;;;;3.63;0.60;;;21.10;42.40;;;;;;4931935;29;20024;-77
2022/10/25 11:39:30;;;;;;;2.50;0.50;;;21.10;39.90;;;;;;4997994;28;20047;-78
2022/10/25 11:42:27;;;;;;;3.55;1.00;;;21.10;39.90;;;;;;4932797;29;20035;-77
2022/10/25 11:45:11;;;;;;;2.28;0.50;;;21.10;41.10;;;;;;4932852;29;20028;-77
2022/10/25 11:48:00;;;;;;;6.40;1.45;;;20.90;41.00;;;;;;4932822;29;20051;-78
2022/10/25 11:50:45;;;;;;;9.52;0.90;;;21.00;40.30;;;;;;4932953;29;20031;-78
2022/10/25 11:53:39;;;;;;;3.70;0.57;;;21.10;40.10;;;;;;4932951;29;20433;-78
2022/10/25 11:56:27;;;;;;;1.27;0.35;;;21.40;39.80;;;;;;4933044;28;20085;-79
2022/10/25 11:59:14;;;;;;;2.08;0.45;;;21.40;38.40;;;;;;4932796;29;20453;-78
2022/10/25 12:02:02;;;;;;;3.53;0.30;;;21.60;38.90;;;;;;4942873;29;20027;-77
2022/10/25 12:04:37;;;;;;;2.45;0.70;;;21.80;37.70;;;;;;4933220;29;20107;-79
2022/10/25 12:07:05;;;;;;;2.30;0.57;;;21.70;38.70;;;;;;4933009;29;20036;-77
2022/10/25 12:09:46;;;;;;;2.17;0.50;;;22.10;37.80;;;;;;4932710;29;20039;-79
2022/10/25 12:12:16;;;;;;;5.57;0.88;;;22.60;36.80;;;;;;4932921;29;20028;-78
2022/10/25 12:14:47;;;;;;;3.15;0.80;;;22.90;36.10;;;;;;4932819;29;20032;-77
2022/10/25 12:17:28;;;;;;;4.95;0.85;;;23.00;35.20;;;;;;4932700;29;20050;-78
2022/10/25 12:19:57;;;;;;;3.45;0.90;;;23.20;35.30;;;;;;4932594;29;20024;-77
2022/10/25 12:22:35;;;;;;;1.25;0.47;;;23.50;35.30;;;;;;4932548;29;20020;-79
2022/10/25 12:25:34;;;;;;;3.53;0.70;;;23.50;34.90;;;;;;4932521;29;20056;-79
2022/10/25 12:28:23;;;;;;;1.33;0.50;;;24.10;34.10;;;;;;4932715;29;20046;-78
2022/10/25 12:30:52;;;;;;;1.70;0.60;;;24.40;32.50;;;;;;4998336;28;20123;-79
2022/10/25 12:33:50;;;;;;;2.33;0.40;;;24.30;32.90;;;;;;4932574;29;20023;-79
2022/10/25 12:36:41;;;;;;;5.25;0.63;;;24.70;33.10;;;;;;4932655;29;20024;-78
2022/10/25 12:39:15;;;;;;;3.53;0.30;;;24.80;31.00;;;;;;4905873;29;20056;-78
2022/10/25 12:41:44;;;;;;;2.92;0.40;;;24.90;31.90;;;;;;4932382;29;20386;-79
2022/10/25 12:44:34;;;;;;;2.67;0.40;;;24.60;31.30;;;;;;4932280;29;20101;-77
2022/10/25 12:47:23;;;;;;;1.13;0.35;;;24.50;31.10;;;;;;4932646;29;20031;-78
2022/10/25 12:50:15;;;;;;;8.82;0.70;;;24.20;31.40;;;;;;4935496;29;20032;-78
2022/10/25 12:53:17;;;;;;;8.20;1.30;;;24.50;31.70;;;;;;4935486;29;20481;-78
2022/10/25 12:56:08;;;;;;;3.30;0.60;;;24.80;32.20;;;;;;4935292;29;20499;-77
2022/10/25 12:59:02;;;;;;;4.50;0.68;;;24.90;31.00;;;;;;4935082;29;20032;-77
2022/10/25 13:01:52;;;;;;;1.42;0.45;;;25.20;31.00;;;;;;4935306;29;20562;-78
2022/10/25 13:04:51;;;;;;;1.02;0.38;;;25.60;30.70;;;;;;4935126;29;20024;-77
2022/10/25 13:07:18;;;;;;;3.42;0.63;;;26.00;30.30;;;;;;4935217;29;20032;-77
2022/10/25 13:09:44;;;;;;;1.40;0.40;;;25.90;27.40;;;;;;4935320;29;20106;-78
2022/10/25 13:12:21;;;;;;;0.80;0.20;;;25.70;28.20;;;;;;5017575;28;20066;-78